Time;durP1;ratioP1;P1;durP2;ratioP2;P2;SDS_P1;SDS_P2;PMS_P1;PMS_P2;Temp;Humidity;BMP_temperature;BMP_pressure;BME280_temperature;BME280_humidity;BME280_pressure;Samples;Min_cycle;Max_cycle;Signal;HPM_P1;HPM_P2
2022/06/03 00:00:33;;;;;;;;;;;13.00;99.90;;;;;;5100680;28;19927;-70
2022/06/03 00:03:00;;;;;;;;;;;13.10;99.90;;;;;;5098740;28;19931;-70
2022/06/03 00:05:32;;;;;;;;;;;13.10;99.90;;;;;;5080765;28;20034;-69
2022/06/03 00:08:18;;;;;;;;;;;13.10;99.90;;;;;;5080773;28;19924;-67
2022/06/03 00:11:07;;;;;;;;;;;13.10;99.90;;;;;;5089462;28;20001;-67
2022/06/03 00:13:46;;;;;;;;;;;13.20;99.90;;;;;;5091221;28;19930;-68
2022/06/03 00:16:18;;;;;;;;;;;13.20;99.90;;;;;;5089318;28;19928;-67
2022/06/03 00:18:58;;;;;;;;;;;13.30;99.90;;;;;;5092041;28;19931;-69
2022/06/03 00:21:50;;;;;;;;;;;13.20;99.90;;;;;;5092147;28;20011;-65
2022/06/03 00:24:19;;;;;;;;;;;13.20;99.90;;;;;;5086924;28;20325;-71
2022/06/03 00:27:03;;;;;;;;;;;13.20;99.90;;;;;;5102475;28;19924;-68
2022/06/03 00:29:39;;;;;;;;;;;13.20;99.90;;;;;;5089051;28;20014;-67
2022/06/03 00:32:14;;;;;;;;;;;13.10;99.90;;;;;;5090994;28;20320;-69
2022/06/03 00:34:52;;;;;;;;;;;13.10;99.90;;;;;;5083243;28;20018;-68
2022/06/03 00:37:41;;;;;;;;;;;13.00;99.90;;;;;;5084071;28;19931;-69
2022/06/03 00:40:23;;;;;;;;;;;13.00;99.90;;;;;;5090136;28;20027;-70
2022/06/03 00:43:13;;;;;;;;;;;13.00;99.90;;;;;;5083768;28;19928;-68
2022/06/03 00:45:59;;;;;;;;;;;13.00;99.90;;;;;;5081901;28;19958;-68
2022/06/03 00:48:49;;;;;;;;;;;12.90;99.90;;;;;;5090268;28;20044;-70
2022/06/03 00:51:37;;;;;;;;;;;12.90;99.90;;;;;;5087842;28;19932;-67
2022/06/03 00:54:03;;;;;;;;;;;12.80;99.90;;;;;;5045704;28;19938;-69
2022/06/03 00:56:39;;;;;;;;;;;12.70;99.90;;;;;;5092447;28;19925;-70
2022/06/03 00:59:11;;;;;;;;;;;12.70;99.90;;;;;;5084924;28;19932;-70
2022/06/03 01:01:59;;;;;;;;;;;12.60;99.90;;;;;;5089847;28;19928;-69
2022/06/03 01:04:35;;;;;;;;;;;12.50;99.90;;;;;;5080417;28;19924;-70
2022/06/03 01:07:11;;;;;;;;;;;12.40;99.90;;;;;;5085093;28;19928;-73
2022/06/03 01:09:46;;;;;;;;;;;12.40;99.90;;;;;;5087631;28;19928;-70
2022/06/03 01:12:14;;;;;;;;;;;12.50;99.90;;;;;;5086240;28;20210;-68
2022/06/03 01:15:00;;;;;;;;;;;12.50;99.90;;;;;;5087033;28;20030;-69
2022/06/03 01:17:45;;;;;;;;;;;12.60;99.90;;;;;;5086668;28;19924;-69
2022/06/03 01:20:31;;;;;;;;;;;12.60;99.90;;;;;;5083057;28;19924;-68
2022/06/03 01:22:57;;;;;;;;;;;12.50;99.90;;;;;;5081712;28;19927;-69
2022/06/03 01:25:30;;;;;;;;;;;12.40;99.90;;;;;;5085353;28;19924;-71
2022/06/03 01:28:00;;;;;;;;;;;12.40;99.90;;;;;;5084137;28;19924;-71
2022/06/03 01:31:00;;;;;;;;;;;12.30;99.90;;;;;;5083914;28;20367;-70
2022/06/03 01:33:45;;;;;;;;;;;12.20;99.90;;;;;;5032520;28;19925;-70
2022/06/03 01:36:27;;;;;;;;;;;12.20;99.90;;;;;;5022914;28;19925;-72
2022/06/03 01:38:54;;;;;;;;;;;12.20;99.90;;;;;;5022796;28;20001;-70
2022/06/03 01:41:20;;;;;;;;;;;12.20;99.90;;;;;;5024398;28;19925;-70
2022/06/03 01:43:47;;;;;;;;;;;12.20;99.90;;;;;;5023731;28;19929;-70
2022/06/03 01:46:28;;;;;;;;;;;12.20;99.90;;;;;;5025078;28;20559;-68
2022/06/03 01:48:58;;;;;;;;;;;12.20;99.90;;;;;;5022072;28;19931;-70
2022/06/03 01:51:53;;;;;;;;;;;12.30;99.90;;;;;;5018997;28;20112;-69
2022/06/03 01:54:22;;;;;;;;;;;12.40;99.90;;;;;;4999017;28;19933;-69
2022/06/03 01:57:08;;;;;;;;;;;12.60;99.90;;;;;;5027550;28;19925;-70
2022/06/03 01:59:50;;;;;;;;;;;12.70;99.90;;;;;;5029262;28;19929;-70
2022/06/03 02:02:36;;;;;;;;;;;12.80;99.90;;;;;;5032454;28;20407;-69
2022/06/03 02:05:21;;;;;;;;;;;13.00;99.90;;;;;;5027730;28;19941;-68
2022/06/03 02:07:57;;;;;;;;;;;13.10;99.90;;;;;;5027128;28;19939;-70
2022/06/03 02:10:42;;;;;;;;;;;13.10;99.90;;;;;;5060054;28;19935;-69
2022/06/03 02:13:21;;;;;;;;;;;13.10;99.90;;;;;;5088180;28;19935;-70
2022/06/03 02:15:48;;;;;;;;;;;13.10;99.90;;;;;;5089276;28;20027;-70
2022/06/03 02:18:33;;;;;;;;;;;12.90;99.90;;;;;;5091900;28;19928;-68
2022/06/03 02:21:09;;;;;;;;;;;12.80;99.90;;;;;;5090423;28;19954;-70
2022/06/03 02:23:47;;;;;;;;;;;12.70;99.90;;;;;;5087756;28;19931;-70
2022/06/03 02:26:17;;;;;;;;;;;12.50;99.90;;;;;;5090671;28;19954;-70
2022/06/03 02:31:55;;;;;;;;;;;12.20;99.90;;;;;;5092039;28;20022;-71
2022/06/03 02:34:21;;;;;;;;;;;12.10;99.90;;;;;;5089789;28;19924;-71
2022/06/03 02:37:07;;;;;;;;;;;12.10;99.90;;;;;;5090699;28;20018;-70
2022/06/03 02:39:57;;;;;;;;;;;11.90;99.90;;;;;;5089077;28;19963;-70
2022/06/03 02:42:53;;;;;;;;;;;11.80;99.90;;;;;;5089470;28;19924;-70
2022/06/03 02:45:54;;;;;;;;;;;11.80;99.90;;;;;;5089427;28;19931;-71
2022/06/03 02:48:40;;;;;;;;;;;11.80;99.90;;;;;;5087528;28;19924;-70
2022/06/03 02:51:18;;;;;;;;;;;11.70;99.90;;;;;;5089725;28;20018;-71
2022/06/03 02:54:10;;;;;;;;;;;11.70;99.90;;;;;;5089144;28;19930;-70
2022/06/03 02:56:48;;;;;;;;;;;11.60;99.90;;;;;;5088452;28;19934;-71
2022/06/03 02:59:29;;;;;;;;;;;11.60;99.90;;;;;;5089551;28;19932;-71
2022/06/03 03:01:58;;;;;;;;;;;11.50;99.90;;;;;;5092370;28;19924;-70
2022/06/03 03:04:52;;;;;;;;;;;11.40;99.90;;;;;;5090328;28;19928;-71
2022/06/03 03:07:25;;;;;;;;;;;11.30;99.90;;;;;;5080361;28;19924;-72
2022/06/03 03:10:11;;;;;;;;;;;11.30;99.90;;;;;;5089920;28;20357;-72
2022/06/03 03:12:40;;;;;;;;;;;11.30;99.90;;;;;;5089357;28;19932;-69
2022/06/03 03:15:10;;;;;;;;;;;11.30;99.90;;;;;;5089635;28;19935;-69
2022/06/03 03:17:55;;;;;;;;;;;11.30;99.90;;;;;;5085228;28;19938;-69
2022/06/03 03:20:44;;;;;;;;;;;11.30;99.90;;;;;;5087031;28;19939;-69
2022/06/03 03:23:30;;;;;;;;;;;11.30;99.90;;;;;;5088762;28;20484;-71
2022/06/03 03:25:56;;;;;;;;;;;11.30;99.90;;;;;;5091268;28;19947;-70
2022/06/03 03:28:29;;;;;;;;;;;11.30;99.90;;;;;;5090009;28;19924;-70
2022/06/03 03:31:14;;;;;;;;;;;11.40;99.90;;;;;;5088497;28;20330;-70
2022/06/03 03:34:02;;;;;;;;;;;11.40;99.90;;;;;;5092510;28;19928;-70
2022/06/03 03:36:29;;;;;;;;;;;11.50;99.90;;;;;;5088254;28;20356;-71
2022/06/03 03:39:05;;;;;;;;;;;11.50;99.90;;;;;;5090316;28;19948;-71
2022/06/03 03:41:47;;;;;;;;;;;11.50;99.90;;;;;;5088776;28;19924;-70
2022/06/03 03:44:16;;;;;;;;;;;11.50;99.90;;;;;;5085711;28;19928;-70
2022/06/03 03:46:43;;;;;;;;;;;11.60;99.90;;;;;;5087929;28;20823;-71
2022/06/03 03:49:30;;;;;;;;;;;11.60;99.90;;;;;;5087610;28;19924;-70
2022/06/03 03:51:56;;;;;;;;;;;11.60;99.90;;;;;;5090001;28;19924;-70
2022/06/03 03:54:42;;;;;;;;;;;11.70;99.90;;;;;;5085642;28;19930;-70
2022/06/03 03:57:11;;;;;;;;;;;11.80;99.90;;;;;;5085939;28;19943;-70
2022/06/03 03:59:56;;;;;;;;;;;11.80;99.90;;;;;;5086443;28;20087;-70
2022/06/03 04:02:32;;;;;;;;;;;11.90;99.90;;;;;;5085820;28;19924;-71
2022/06/03 04:05:17;;;;;;;;;;;11.90;99.90;;;;;;5087725;28;19935;-70
2022/06/03 04:08:03;;;;;;;;;;;12.00;99.90;;;;;;5100726;28;19932;-70
2022/06/03 04:10:42;;;;;;;;;;;12.10;99.90;;;;;;5087006;28;19955;-70
2022/06/03 04:13:29;;;;;;;;;;;12.20;99.90;;;;;;5086517;28;19924;-71
2022/06/03 04:15:55;;;;;;;;;;;12.30;99.90;;;;;;5082173;28;19978;-70
2022/06/03 04:18:37;;;;;;;;;;;12.60;99.90;;;;;;5088706;28;19964;-71
2022/06/03 04:21:14;;;;;;;;;;;12.70;99.90;;;;;;5085188;28;19994;-73
2022/06/03 04:23:40;;;;;;;;;;;12.80;99.90;;;;;;5086895;28;19973;-70
2022/06/03 04:26:26;;;;;;;;;;;13.00;99.90;;;;;;5086541;28;20403;-72
2022/06/03 04:29:07;;;;;;;;;;;13.10;99.90;;;;;;5080747;28;19932;-71
2022/06/03 04:32:08;;;;;;;;;;;13.20;99.90;;;;;;5082930;28;19963;-71
2022/06/03 04:34:40;;;;;;;;;;;13.30;99.90;;;;;;5088454;28;19956;-72
2022/06/03 04:37:26;;;;;;;;;;;13.50;99.90;;;;;;5085235;28;19928;-71
2022/06/03 04:40:04;;;;;;;;;;;13.90;99.90;;;;;;5087721;28;20303;-70
2022/06/03 04:42:51;;;;;;;;;;;15.20;99.90;;;;;;5086903;28;20420;-68
2022/06/03 04:45:37;;;;;;;;;;;16.30;99.90;;;;;;5085015;28;19972;-70
2022/06/03 04:48:03;;;;;;;;;;;17.90;99.90;;;;;;5087403;28;20022;-69
2022/06/03 04:50:49;;;;;;;;;;;19.30;99.90;;;;;;5079301;28;20018;-68
2022/06/03 04:53:21;;;;;;;;;;;20.00;99.90;;;;;;5081461;28;19924;-70
2022/06/03 04:55:51;;;;;;;;;;;20.50;99.90;;;;;;5089506;28;19924;-67
2022/06/03 04:58:21;;;;;;;;;;;20.50;99.90;;;;;;5091263;28;20023;-69
2022/06/03 05:00:50;;;;;;;;;;;20.10;99.90;;;;;;5087889;28;19924;-70
2022/06/03 05:03:36;;;;;;;;;;;20.40;99.90;;;;;;5082298;28;20355;-70
2022/06/03 05:06:21;;;;;;;;;;;20.20;99.90;;;;;;5084171;28;20019;-67
2022/06/03 05:08:48;;;;;;;;;;;19.60;99.90;;;;;;5087249;28;19971;-69
2022/06/03 05:11:24;;;;;;;;;;;19.30;99.90;;;;;;5085097;28;19938;-67
2022/06/03 05:13:56;;;;;;;;;;;19.30;99.90;;;;;;5077228;28;19932;-68
2022/06/03 05:16:56;;;;;;;;;;;19.20;99.90;;;;;;5103939;27;19930;-68
2022/06/03 05:19:22;;;;;;;;;;;19.10;99.90;;;;;;5085823;28;19924;-68
2022/06/03 05:22:05;;;;;;;;;;;18.90;99.90;;;;;;5088659;28;19931;-68
2022/06/03 05:24:52;;;;;;;;;;;18.60;99.90;;;;;;5081505;28;19932;-67
2022/06/03 05:27:22;;;;;;;;;;;18.40;99.90;;;;;;5078137;28;19932;-67
2022/06/03 05:30:07;;;;;;;;;;;18.00;99.90;;;;;;5081446;28;19932;-67
2022/06/03 05:32:40;;;;;;;;;;;17.90;99.90;;;;;;5086687;28;20014;-69
2022/06/03 05:35:26;;;;;;;;;;;17.90;99.90;;;;;;5085594;28;19924;-67
2022/06/03 05:38:12;;;;;;;;;;;18.20;99.90;;;;;;5083457;28;19932;-69
2022/06/03 05:40:44;;;;;;;;;;;18.40;99.90;;;;;;5082606;28;19934;-69
2022/06/03 05:43:33;;;;;;;;;;;18.50;99.90;;;;;;5084638;28;20611;-66
2022/06/03 05:46:06;;;;;;;;;;;18.40;99.90;;;;;;5095050;28;19924;-69
2022/06/03 05:48:39;;;;;;;;;;;18.50;99.90;;;;;;5085602;28;20017;-71
2022/06/03 05:51:11;;;;;;;;;;;18.40;99.90;;;;;;5087221;28;19924;-67
2022/06/03 05:53:47;;;;;;;;;;;18.40;99.90;;;;;;5085962;28;19932;-67
2022/06/03 05:56:26;;;;;;;;;;;18.40;99.90;;;;;;5086587;28;20011;-68
2022/06/03 05:58:59;;;;;;;;;;;18.60;99.90;;;;;;5087004;28;19936;-66
2022/06/03 06:01:29;;;;;;;;;;;18.90;99.90;;;;;;5084717;28;20401;-71
2022/06/03 06:04:14;;;;;;;;;;;18.90;99.90;;;;;;5086387;28;19993;-69
2022/06/03 06:06:41;;;;;;;;;;;18.90;99.90;;;;;;5089560;28;19924;-70
2022/06/03 06:09:26;;;;;;;;;;;19.00;99.90;;;;;;5083413;28;19924;-68
2022/06/03 06:12:17;;;;;;;;;;;19.30;99.90;;;;;;5085076;28;20809;-69
2022/06/03 06:14:52;;;;;;;;;;;19.80;99.90;;;;;;5087462;28;19964;-67
2022/06/03 06:17:37;;;;;;;;;;;19.90;99.20;;;;;;5084288;28;19928;-69
2022/06/03 06:20:16;;;;;;;;;;;19.80;99.40;;;;;;5078699;28;19924;-69
2022/06/03 06:22:48;;;;;;;;;;;19.60;99.90;;;;;;5102373;28;19971;-70
2022/06/03 06:25:40;;;;;;;;;;;19.90;99.90;;;;;;5089912;28;19934;-71
2022/06/03 06:28:16;;;;;;;;;;;20.00;99.40;;;;;;5076298;28;19924;-66
2022/06/03 06:30:54;;;;;;;;;;;20.00;99.30;;;;;;5096578;28;19930;-66
2022/06/03 06:33:32;;;;;;;;;;;20.00;99.40;;;;;;5088417;28;20020;-72
2022/06/03 06:36:19;;;;;;;;;;;20.20;99.00;;;;;;5085510;28;19989;-67
2022/06/03 06:38:52;;;;;;;;;;;20.60;99.00;;;;;;5092478;28;19924;-71
2022/06/03 06:41:19;;;;;;;;;;;21.60;99.00;;;;;;5089840;28;19928;-72
2022/06/03 06:43:45;;;;;;;;;;;22.30;97.60;;;;;;5090204;28;19924;-67
2022/06/03 06:46:29;;;;;;;;;;;22.80;97.00;;;;;;5088274;28;19928;-67
2022/06/03 06:49:14;;;;;;;;;;;22.80;96.50;;;;;;5091652;28;19923;-68
2022/06/03 06:51:44;;;;;;;;;;;22.00;96.50;;;;;;5087081;28;19935;-67
2022/06/03 06:54:21;;;;;;;;;;;21.90;96.90;;;;;;5085172;28;19924;-67
2022/06/03 06:56:53;;;;;;;;;;;21.80;97.20;;;;;;5091452;28;19954;-68
2022/06/03 06:59:28;;;;;;;;;;;22.00;97.40;;;;;;5089933;28;19975;-69
2022/06/03 07:02:15;;;;;;;;;;;22.20;96.90;;;;;;5088703;28;19924;-66
2022/06/03 07:04:49;;;;;;;;;;;22.30;96.80;;;;;;5086810;28;19930;-69
2022/06/03 07:07:19;;;;;;;;;;;22.80;97.40;;;;;;5087690;28;19924;-69
2022/06/03 07:09:46;;;;;;;;;;;23.40;96.30;;;;;;5089799;28;19931;-66
2022/06/03 07:12:14;;;;;;;;;;;23.80;95.80;;;;;;5087068;28;20326;-73
2022/06/03 07:15:01;;;;;;;;;;;23.70;95.40;;;;;;5087998;28;19981;-73
2022/06/03 07:20:58;;;;;;;;;;;22.80;95.80;;;;;;5088876;28;19928;-68
2022/06/03 07:23:26;;;;;;;;;;;23.00;95.60;;;;;;5087999;28;20363;-67
2022/06/03 07:25:58;;;;;;;;;;;22.50;96.10;;;;;;5091420;28;19924;-67
2022/06/03 07:28:45;;;;;;;;;;;22.20;96.60;;;;;;5088898;28;19931;-68
2022/06/03 07:31:21;;;;;;;;;;;22.20;96.20;;;;;;5086185;28;19977;-67
2022/06/03 07:34:03;;;;;;;;;;;22.80;96.50;;;;;;5085905;28;19924;-66
2022/06/03 07:36:42;;;;;;;;;;;23.20;95.90;;;;;;5088799;28;19935;-71
2022/06/03 07:39:21;;;;;;;;;;;23.20;95.80;;;;;;5090166;28;19924;-64
2022/06/03 07:41:51;;;;;;;;;;;23.80;95.70;;;;;;5090402;28;20282;-64
2022/06/03 07:44:34;;;;;;;;;;;24.10;95.60;;;;;;5083791;28;19934;-64
2022/06/03 07:47:02;;;;;;;;;;;23.60;95.10;;;;;;5082675;28;19932;-65
2022/06/03 07:49:31;;;;;;;;;;;23.60;95.60;;;;;;5086942;28;19924;-66
2022/06/03 07:52:01;;;;;;;;;;;23.80;95.50;;;;;;5081853;28;20018;-64
2022/06/03 07:54:34;;;;;;;;;;;24.10;95.60;;;;;;5085989;28;20475;-64
2022/06/03 07:57:01;;;;;;;;;;;25.10;96.20;;;;;;5089340;28;19924;-64
2022/06/03 07:59:34;;;;;;;;;;;25.80;94.40;;;;;;5085754;28;19940;-65
2022/06/03 08:02:03;;;;;;;;;;;25.60;94.10;;;;;;5085867;28;20039;-65
2022/06/03 08:04:34;;;;;;;;;;;25.50;94.50;;;;;;5086579;28;20019;-64
2022/06/03 08:12:36;;;;;;;;;;;24.90;94.50;;;;;;5082007;28;20005;-65
2022/06/03 08:15:14;;;;;;;;;;;24.70;94.70;;;;;;5084506;28;20015;-64
2022/06/03 08:17:41;;;;;;;;;;;25.00;94.80;;;;;;5083315;28;19924;-62
2022/06/03 08:20:08;;;;;;;;;;;25.20;94.20;;;;;;5088175;28;20223;-62
2022/06/03 08:22:35;;;;;;;;;;;24.90;94.50;;;;;;5078837;28;19938;-64
2022/06/03 08:25:02;;;;;;;;;;;24.50;94.60;;;;;;5086989;28;20011;-66
2022/06/03 08:27:33;;;;;;;;;;;23.90;95.20;;;;;;5082554;28;22319;-64
2022/06/03 08:30:08;;;;;;;;;;;24.10;95.50;;;;;;5081448;28;19928;-65
2022/06/03 08:32:43;;;;;;;;;;;24.30;95.10;;;;;;5084552;28;19924;-63
2022/06/03 08:35:30;;;;;;;;;;;24.30;95.20;;;;;;5084191;28;19953;-65
2022/06/03 08:38:02;;;;;;;;;;;24.00;95.20;;;;;;5087352;28;19946;-64
2022/06/03 08:40:38;;;;;;;;;;;23.90;95.50;;;;;;5078764;28;20483;-65
2022/06/03 08:43:23;;;;;;;;;;;24.30;95.40;;;;;;5080294;28;19930;-66
2022/06/03 08:45:50;;;;;;;;;;;24.40;95.20;;;;;;5077893;28;20294;-65
2022/06/03 08:48:19;;;;;;;;;;;24.70;95.40;;;;;;5080248;28;19940;-64
2022/06/03 08:51:05;;;;;;;;;;;24.80;95.00;;;;;;5082037;28;19974;-65
2022/06/03 08:53:37;;;;;;;;;;;25.40;94.80;;;;;;5081098;28;19928;-65
2022/06/03 08:56:07;;;;;;;;;;;25.80;94.30;;;;;;5084297;28;19924;-65
2022/06/03 08:58:43;;;;;;;;;;;26.60;94.60;;;;;;5082887;28;20286;-64
2022/06/03 09:01:10;;;;;;;;;;;27.60;93.80;;;;;;5083995;28;19943;-65
2022/06/03 09:03:57;;;;;;;;;;;28.10;92.70;;;;;;5076006;28;19932;-64
2022/06/03 09:06:45;;;;;;;;;;;28.10;92.80;;;;;;5045490;28;19924;-63
2022/06/03 09:09:17;;;;;;;;;;;28.50;92.70;;;;;;5088129;28;20033;-64
2022/06/03 09:12:03;;;;;;;;;;;29.00;92.10;;;;;;5079838;28;19931;-63
2022/06/03 09:14:31;;;;;;;;;;;28.70;92.20;;;;;;5083147;28;19930;-64
2022/06/03 09:17:04;;;;;;;;;;;28.70;91.90;;;;;;5079141;28;19924;-63
2022/06/03 09:19:33;;;;;;;;;;;29.00;91.80;;;;;;5084093;28;20552;-64
2022/06/03 09:22:06;;;;;;;;;;;29.10;91.70;;;;;;5085854;28;19928;-65
2022/06/03 09:24:35;;;;;;;;;;;28.60;91.30;;;;;;5079107;28;19930;-64
2022/06/03 09:27:03;;;;;;;;;;;28.70;91.90;;;;;;5087955;28;20006;-64
2022/06/03 09:29:30;;;;;;;;;;;28.70;92.50;;;;;;5084152;28;20593;-63
2022/06/03 09:32:02;;;;;;;;;;;28.90;91.50;;;;;;5086637;28;19930;-65
2022/06/03 09:34:44;;;;;;;;;;;29.00;91.90;;;;;;5081792;28;19932;-65
2022/06/03 09:37:31;;;;;;;;;;;29.20;91.40;;;;;;5080104;28;19940;-63
2022/06/03 09:39:58;;;;;;;;;;;29.40;91.20;;;;;;5087363;28;19927;-65
2022/06/03 09:42:26;;;;;;;;;;;30.10;91.50;;;;;;5088018;28;19954;-64
2022/06/03 09:44:53;;;;;;;;;;;30.50;91.00;;;;;;5081711;28;22576;-64
2022/06/03 09:47:22;;;;;;;;;;;30.50;90.70;;;;;;5084301;28;19936;-65
2022/06/03 09:49:50;;;;;;;;;;;30.50;90.80;;;;;;5086242;28;19924;-65
2022/06/03 09:52:22;;;;;;;;;;;30.90;90.70;;;;;;5086089;28;20367;-64
2022/06/03 09:54:49;;;;;;;;;;;30.60;91.10;;;;;;5075645;28;19939;-68
2022/06/03 09:57:21;;;;;;;;;;;29.90;90.90;;;;;;5088452;28;19928;-65
2022/06/03 10:00:00;;;;;;;;;;;29.60;91.40;;;;;;5085748;28;20621;-64
2022/06/03 10:02:27;;;;;;;;;;;30.50;90.80;;;;;;5084351;28;19924;-67
2022/06/03 10:04:56;;;;;;;;;;;31.00;90.30;;;;;;5086025;28;19924;-65
2022/06/03 10:07:26;;;;;;;;;;;31.30;90.70;;;;;;5083402;28;19932;-66
2022/06/03 10:12:59;;;;;;;;;;;32.10;90.20;;;;;;5083351;28;19934;-70
2022/06/03 10:18:07;;;;;;;;;;;32.60;89.10;;;;;;5090443;28;19924;-67
2022/06/03 10:20:34;;;;;;;;;;;32.40;89.20;;;;;;5087148;28;19977;-72
2022/06/03 10:23:01;;;;;;;;;;;32.70;88.60;;;;;;5097626;28;20015;-70
2022/06/03 10:25:28;;;;;;;;;;;31.40;89.10;;;;;;5083888;28;19924;-72
2022/06/03 10:27:55;;;;;;;;;;;30.70;90.20;;;;;;5088202;28;19924;-73
2022/06/03 10:30:26;;;;;;;;;;;30.40;90.50;;;;;;5085174;28;19928;-73
2022/06/03 10:32:53;;;;;;;;;;;30.70;91.10;;;;;;5091408;28;19936;-70
2022/06/03 10:35:26;;;;;;;;;;;30.80;90.60;;;;;;5085055;28;20373;-73
2022/06/03 10:37:54;;;;;;;;;;;31.20;90.30;;;;;;5094494;28;19965;-71
2022/06/03 10:40:22;;;;;;;;;;;31.10;90.00;;;;;;5088434;28;19928;-71
2022/06/03 10:42:49;;;;;;;;;;;30.60;90.50;;;;;;5088479;28;19924;-70
2022/06/03 10:45:16;;;;;;;;;;;30.60;90.90;;;;;;5083278;28;19936;-73
2022/06/03 10:47:48;;;;;;;;;;;30.40;90.70;;;;;;5089145;28;19924;-71
2022/06/03 10:50:25;;;;;;;;;;;30.00;90.90;;;;;;5084841;28;19924;-71
2022/06/03 11:01:55;;;;;;;;;;;30.20;91.00;;;;;;5082777;28;20886;-72
2022/06/03 11:04:33;;;;;;;;;;;30.60;90.70;;;;;;5087497;28;20418;-73
2022/06/03 11:07:20;;;;;;;;;;;29.80;90.80;;;;;;5085363;28;19967;-70
2022/06/03 11:10:13;;;;;;;;;;;30.00;91.20;;;;;;5088023;28;19924;-69
2022/06/03 11:13:01;;;;;;;;;;;30.20;91.10;;;;;;5085525;28;19924;-73
2022/06/03 11:15:35;;;;;;;;;;;30.20;91.90;;;;;;5087206;28;19932;-73
2022/06/03 11:18:15;;;;;;;;;;;29.80;91.40;;;;;;5089291;28;20371;-74
2022/06/03 11:20:48;;;;;;;;;;;29.90;91.60;;;;;;5089036;28;19995;-71
2022/06/03 11:23:17;;;;;;;;;;;29.80;91.70;;;;;;5086891;28;20343;-71
2022/06/03 11:25:54;;;;;;;;;;;29.90;92.10;;;;;;5089938;28;19924;-68
2022/06/03 11:28:36;;;;;;;;;;;30.50;91.70;;;;;;5087590;28;19928;-69
2022/06/03 11:31:16;;;;;;;;;;;31.30;91.30;;;;;;5086269;28;20904;-69
2022/06/03 11:33:52;;;;;;;;;;;31.20;90.70;;;;;;5085099;28;20309;-71
2022/06/03 11:36:19;;;;;;;;;;;31.10;90.90;;;;;;5089477;28;19935;-71
2022/06/03 11:38:45;;;;;;;;;;;30.90;90.90;;;;;;5085544;28;19927;-72
2022/06/03 11:41:24;;;;;;;;;;;30.70;90.90;;;;;;5084029;28;19924;-71
2022/06/03 11:44:06;;;;;;;;;;;31.20;91.30;;;;;;5083375;28;19965;-71
2022/06/03 11:46:51;;;;;;;;;;;31.40;91.20;;;;;;5080549;28;19924;-71
2022/06/03 11:49:19;;;;;;;;;;;31.30;90.90;;;;;;5081737;28;20489;-74
2022/06/03 11:51:49;;;;;;;;;;;31.40;90.70;;;;;;5089816;28;19928;-75
2022/06/03 11:54:18;;;;;;;;;;;31.50;90.80;;;;;;5083607;28;20370;-72
2022/06/03 11:56:46;;;;;;;;;;;30.70;91.00;;;;;;5086090;28;19931;-69
2022/06/03 11:59:15;;;;;;;;;;;30.70;91.70;;;;;;5084131;28;19924;-72
2022/06/03 12:01:45;;;;;;;;;;;31.00;91.50;;;;;;5086117;28;19924;-70
2022/06/03 12:04:31;;;;;;;;;;;31.40;91.40;;;;;;5080100;28;19960;-69
2022/06/03 12:07:13;;;;;;;;;;;31.20;90.90;;;;;;5085715;28;19936;-72
2022/06/03 12:09:40;;;;;;;;;;;31.10;91.10;;;;;;5086484;28;19931;-70
2022/06/03 12:15:18;;;;;;;;;;;31.30;91.30;;;;;;5085337;28;20290;-75
2022/06/03 12:17:47;;;;;;;;;;;31.80;91.20;;;;;;5085023;28;19924;-69
2022/06/03 12:20:29;;;;;;;;;;;31.70;91.10;;;;;;5081570;28;20043;-68
2022/06/03 12:22:56;;;;;;;;;;;31.90;90.60;;;;;;5084682;28;19924;-67
2022/06/03 12:25:48;;;;;;;;;;;31.30;90.90;;;;;;5077723;28;19932;-67
2022/06/03 12:28:29;;;;;;;;;;;31.10;91.00;;;;;;5080161;28;20015;-71
2022/06/03 12:31:28;;;;;;;;;;;30.90;91.60;;;;;;5086048;28;20485;-70
2022/06/03 12:33:58;;;;;;;;;;;31.10;91.30;;;;;;5048539;28;19932;-66
2022/06/03 12:36:25;;;;;;;;;;;31.30;90.90;;;;;;5085526;28;19926;-70
2022/06/03 12:39:08;;;;;;;;;;;31.20;91.30;;;;;;5084419;28;20492;-69
2022/06/03 12:41:47;;;;;;;;;;;31.20;91.20;;;;;;5081616;28;19925;-69
2022/06/03 12:44:33;;;;;;;;;;;31.90;91.00;;;;;;5083754;28;19928;-69
2022/06/03 12:47:18;;;;;;;;;;;32.30;90.70;;;;;;5081317;28;19928;-68
2022/06/03 12:49:48;;;;;;;;;;;32.30;90.50;;;;;;5087276;28;19931;-69
2022/06/03 12:52:21;;;;;;;;;;;32.40;90.50;;;;;;5083936;28;19928;-72
2022/06/03 12:54:55;;;;;;;;;;;32.30;90.30;;;;;;5085823;28;20022;-68
2022/06/03 12:57:31;;;;;;;;;;;32.70;90.60;;;;;;5082395;28;19928;-71
2022/06/03 13:00:04;;;;;;;;;;;32.70;90.10;;;;;;5074749;28;19932;-71
2022/06/03 13:02:35;;;;;;;;;;;32.60;90.20;;;;;;5083380;28;19974;-69
2022/06/03 13:05:07;;;;;;;;;;;32.60;90.40;;;;;;5082622;28;20002;-68
2022/06/03 13:07:54;;;;;;;;;;;32.30;90.10;;;;;;5074165;28;19950;-67
2022/06/03 13:10:23;;;;;;;;;;;31.90;90.90;;;;;;5081285;28;19928;-68
2022/06/03 13:12:51;;;;;;;;;;;31.80;90.70;;;;;;5089879;28;19939;-67
2022/06/03 13:15:17;;;;;;;;;;;31.90;90.90;;;;;;5080144;28;19924;-69
2022/06/03 13:18:10;;;;;;;;;;;32.00;90.90;;;;;;5080148;28;19925;-68
2022/06/03 13:20:42;;;;;;;;;;;32.10;90.70;;;;;;5081539;28;19928;-68
2022/06/03 13:23:24;;;;;;;;;;;32.40;90.80;;;;;;5083828;28;20392;-69
2022/06/03 13:25:51;;;;;;;;;;;32.30;90.70;;;;;;5086717;28;19989;-69
2022/06/03 13:28:18;;;;;;;;;;;31.70;90.50;;;;;;5076780;28;20019;-68
2022/06/03 13:31:01;;;;;;;;;;;31.30;91.10;;;;;;5081347;28;20279;-68
2022/06/03 13:33:28;;;;;;;;;;;30.80;91.40;;;;;;5083686;28;20019;-68
2022/06/03 13:35:57;;;;;;;;;;;30.50;91.60;;;;;;5078457;28;19932;-68
2022/06/03 13:38:38;;;;;;;;;;;30.20;91.60;;;;;;5080502;28;19924;-68
2022/06/03 13:44:11;;;;;;;;;;;30.00;92.50;;;;;;5085119;28;20443;-70
2022/06/03 13:46:38;;;;;;;;;;;29.90;92.30;;;;;;5073283;28;19925;-70
2022/06/03 13:49:10;;;;;;;;;;;29.60;92.40;;;;;;5079588;28;19928;-69
2022/06/03 13:51:37;;;;;;;;;;;29.60;92.80;;;;;;5089397;28;19931;-69
2022/06/03 13:54:15;;;;;;;;;;;29.50;92.70;;;;;;5087679;28;19924;-69
2022/06/03 13:57:00;;;;;;;;;;;29.10;92.70;;;;;;5086336;28;20044;-69
2022/06/03 13:59:30;;;;;;;;;;;28.90;93.30;;;;;;5087448;28;20530;-68
2022/06/03 14:01:57;;;;;;;;;;;28.90;93.50;;;;;;5074893;28;19938;-70
2022/06/03 14:04:31;;;;;;;;;;;28.80;93.70;;;;;;5090354;28;19935;-71
2022/06/03 14:07:07;;;;;;;;;;;28.60;93.80;;;;;;5086188;28;20356;-71
2022/06/03 14:09:36;;;;;;;;;;;28.30;94.40;;;;;;5087044;28;19925;-70
2022/06/03 14:12:06;;;;;;;;;;;28.20;95.00;;;;;;5093390;28;20517;-70
2022/06/03 14:14:51;;;;;;;;;;;28.20;95.20;;;;;;5092080;28;19966;-73
2022/06/03 14:17:33;;;;;;;;;;;28.10;95.30;;;;;;5092345;28;19924;-71
2022/06/03 14:20:06;;;;;;;;;;;27.90;95.60;;;;;;5087478;28;19924;-71
2022/06/03 14:22:39;;;;;;;;;;;27.60;96.00;;;;;;5089693;28;20563;-72
2022/06/03 14:25:19;;;;;;;;;;;27.40;96.30;;;;;;5082269;28;20011;-71
2022/06/03 14:28:05;;;;;;;;;;;27.00;97.20;;;;;;5088849;28;19982;-71
2022/06/03 14:30:40;;;;;;;;;;;26.70;97.80;;;;;;5089789;28;20290;-71
2022/06/03 14:33:14;;;;;;;;;;;26.20;99.30;;;;;;5080746;28;20011;-71
2022/06/03 14:35:44;;;;;;;;;;;25.70;99.90;;;;;;5087763;28;20382;-67
2022/06/03 14:38:24;;;;;;;;;;;25.50;99.90;;;;;;5089777;28;20371;-67
2022/06/03 14:40:51;;;;;;;;;;;25.30;99.90;;;;;;5082088;28;20019;-67
2022/06/03 14:43:20;;;;;;;;;;;25.20;99.90;;;;;;5088689;28;20039;-67
2022/06/03 14:45:49;;;;;;;;;;;25.20;99.90;;;;;;5089664;28;20015;-67
2022/06/03 14:48:18;;;;;;;;;;;25.20;99.90;;;;;;5088511;28;19967;-67
2022/06/03 14:50:59;;;;;;;;;;;25.30;99.90;;;;;;5087198;28;19931;-68
2022/06/03 14:53:29;;;;;;;;;;;25.30;99.90;;;;;;5080322;28;20397;-67
2022/06/03 14:56:00;;;;;;;;;;;25.40;99.90;;;;;;5085152;28;19924;-67
2022/06/03 14:58:30;;;;;;;;;;;25.50;99.90;;;;;;5091417;28;19931;-67
2022/06/03 15:01:16;;;;;;;;;;;25.50;99.90;;;;;;5091426;28;19923;-67
2022/06/03 15:03:47;;;;;;;;;;;25.50;99.90;;;;;;5099136;28;19943;-67
2022/06/03 15:06:24;;;;;;;;;;;25.60;99.90;;;;;;5089986;28;19924;-67
2022/06/03 15:08:51;;;;;;;;;;;25.70;99.90;;;;;;5088326;28;20010;-66
2022/06/03 15:11:25;;;;;;;;;;;25.80;99.90;;;;;;5089823;28;19932;-67
2022/06/03 15:13:53;;;;;;;;;;;25.80;99.90;;;;;;5093511;28;20414;-67
2022/06/03 15:16:21;;;;;;;;;;;25.80;99.90;;;;;;5089473;28;19930;-67
2022/06/03 15:18:48;;;;;;;;;;;25.80;99.90;;;;;;5091313;28;19928;-67
2022/06/03 15:21:29;;;;;;;;;;;25.70;99.90;;;;;;5089094;28;20034;-67
2022/06/03 15:23:59;;;;;;;;;;;25.30;99.90;;;;;;5091567;28;19924;-67
2022/06/03 15:26:27;;;;;;;;;;;24.90;99.90;;;;;;5084667;28;19930;-67
2022/06/03 15:28:56;;;;;;;;;;;24.80;99.90;;;;;;5090542;28;20015;-66
2022/06/03 15:31:26;;;;;;;;;;;24.80;99.90;;;;;;5080582;28;19932;-67
2022/06/03 15:33:55;;;;;;;;;;;24.70;99.90;;;;;;5086945;28;20028;-66
2022/06/03 15:36:23;;;;;;;;;;;24.70;99.90;;;;;;5087662;28;20262;-68
2022/06/03 15:38:52;;;;;;;;;;;24.70;99.90;;;;;;5086434;28;20046;-68